Time;durP1;ratioP1;P1;durP2;ratioP2;P2;SDS_P1;SDS_P2;PMS_P1;PMS_P2;Temp;Humidity;BMP_temperature;BMP_pressure;BME280_temperature;BME280_humidity;BME280_pressure;Samples;Min_cycle;Max_cycle;Signal;HPM_P1;HPM_P2
2021/08/22 00:01:02;;;;;;;;;;;25.90;48.10;;;;;;8367209;28;19933;-47
2021/08/22 00:05:03;;;;;;;;;;;26.00;48.10;;;;;;8367924;28;19913;-47
2021/08/22 00:09:05;;;;;;;;;;;25.90;48.10;;;;;;8366262;28;19974;-48
2021/08/22 00:13:05;;;;;;;;;;;25.90;48.10;;;;;;8366888;28;19913;-47
2021/08/22 00:17:06;;;;;;;;;;;25.90;48.10;;;;;;8366365;28;19923;-47
2021/08/22 00:21:07;;;;;;;;;;;25.90;48.10;;;;;;8367719;28;19944;-46
2021/08/22 00:25:07;;;;;;;;;;;25.90;48.10;;;;;;8366666;28;20421;-48
2021/08/22 00:29:08;;;;;;;;;;;25.90;48.20;;;;;;8366055;28;19920;-47
2021/08/22 00:33:08;;;;;;;;;;;25.90;48.20;;;;;;8366356;28;19917;-46
2021/08/22 00:37:09;;;;;;;;;;;25.90;48.20;;;;;;8366599;28;20293;-47
2021/08/22 00:41:09;;;;;;;;;;;25.90;48.20;;;;;;8366115;28;19975;-46
2021/08/22 00:45:10;;;;;;;;;;;25.90;48.30;;;;;;8366013;28;19917;-46
2021/08/22 00:49:10;;;;;;;;;;;25.80;48.70;;;;;;8366184;28;19917;-46
2021/08/22 00:53:11;;;;;;;;;;;25.90;48.30;;;;;;8365452;28;19936;-48
2021/08/22 00:57:14;;;;;;;;;;;25.90;48.30;;;;;;8366355;28;19991;-46
2021/08/22 01:01:16;;;;;;;;;;;25.90;48.30;;;;;;8365719;28;19967;-47
2021/08/22 01:05:36;;;;;;;;;;;25.80;48.30;;;;;;8365145;28;20289;-46
2021/08/22 01:09:39;;;;;;;;;;;25.80;48.30;;;;;;8365551;28;19925;-46
2021/08/22 01:13:41;;;;;;;;;;;25.80;48.30;;;;;;8365211;28;19917;-47
2021/08/22 01:17:44;;;;;;;;;;;25.80;48.30;;;;;;8365368;28;20297;-46
2021/08/22 01:21:45;;;;;;;;;;;25.80;48.30;;;;;;8364377;28;20341;-46
2021/08/22 01:25:45;;;;;;;;;;;25.80;48.30;;;;;;8364841;28;19917;-47
2021/08/22 01:29:51;;;;;;;;;;;25.80;48.40;;;;;;8364231;28;19917;-46
2021/08/22 01:33:54;;;;;;;;;;;25.80;48.30;;;;;;8365304;28;19913;-47
2021/08/22 01:37:55;;;;;;;;;;;25.80;48.40;;;;;;8364453;28;19951;-46
2021/08/22 01:41:55;;;;;;;;;;;25.80;48.40;;;;;;8363693;28;19927;-46
2021/08/22 01:45:57;;;;;;;;;;;25.80;48.40;;;;;;8364241;28;19921;-46
2021/08/22 01:49:58;;;;;;;;;;;25.80;48.50;;;;;;8364477;28;19913;-46
2021/08/22 01:53:59;;;;;;;;;;;25.80;48.40;;;;;;8364063;28;19913;-46
2021/08/22 01:57:59;;;;;;;;;;;25.70;48.40;;;;;;8364070;28;19930;-46
2021/08/22 02:02:00;;;;;;;;;;;25.70;48.40;;;;;;8363334;28;19979;-46
2021/08/22 02:06:04;;;;;;;;;;;25.80;48.40;;;;;;8363518;28;19956;-46
2021/08/22 02:10:04;;;;;;;;;;;25.70;48.40;;;;;;8364549;28;19920;-50
2021/08/22 02:14:05;;;;;;;;;;;25.70;48.50;;;;;;8362954;28;19987;-46
2021/08/22 02:18:07;;;;;;;;;;;25.70;48.50;;;;;;8362975;28;20382;-47
2021/08/22 02:22:09;;;;;;;;;;;25.70;48.50;;;;;;8362941;28;19921;-47
2021/08/22 02:26:09;;;;;;;;;;;25.70;49.00;;;;;;8363121;28;20456;-49
2021/08/22 02:30:10;;;;;;;;;;;25.70;48.50;;;;;;8363256;28;19967;-49
2021/08/22 02:34:11;;;;;;;;;;;25.70;48.50;;;;;;8362221;28;20003;-46
2021/08/22 02:38:11;;;;;;;;;;;25.70;48.50;;;;;;8362375;28;19912;-47
2021/08/22 02:42:11;;;;;;;;;;;25.70;48.50;;;;;;8362689;28;19920;-47
2021/08/22 02:46:12;;;;;;;;;;;25.70;48.50;;;;;;8363506;28;20019;-49
2021/08/22 02:50:12;;;;;;;;;;;25.70;48.50;;;;;;8362311;28;19912;-47
2021/08/22 02:54:13;;;;;;;;;;;25.70;48.60;;;;;;8362530;28;19917;-48
2021/08/22 02:58:14;;;;;;;;;;;25.70;48.60;;;;;;8362592;28;19920;-47
2021/08/22 03:02:14;;;;;;;;;;;25.60;48.50;;;;;;8362940;28;19931;-47
2021/08/22 03:06:14;;;;;;;;;;;25.60;48.50;;;;;;8362695;28;20354;-48
2021/08/22 03:10:15;;;;;;;;;;;25.60;48.50;;;;;;8362252;28;20003;-47
2021/08/22 03:14:15;;;;;;;;;;;25.60;48.60;;;;;;8362009;28;19919;-47
2021/08/22 03:18:16;;;;;;;;;;;25.60;48.60;;;;;;8363213;28;19912;-47
2021/08/22 03:22:16;;;;;;;;;;;25.60;48.60;;;;;;8362106;28;19948;-47
2021/08/22 03:26:17;;;;;;;;;;;25.60;48.60;;;;;;8361748;28;19966;-48
2021/08/22 03:30:17;;;;;;;;;;;25.60;48.60;;;;;;8362054;28;20434;-49
2021/08/22 03:34:18;;;;;;;;;;;25.60;48.60;;;;;;8362309;28;20285;-47
2021/08/22 03:38:18;;;;;;;;;;;25.60;48.60;;;;;;8362416;28;20373;-47
2021/08/22 03:42:19;;;;;;;;;;;25.60;48.60;;;;;;8362110;28;19932;-51
2021/08/22 03:46:19;;;;;;;;;;;25.60;48.60;;;;;;8367766;28;20015;-47
2021/08/22 03:50:19;;;;;;;;;;;25.60;48.60;;;;;;8367298;28;19921;-51
2021/08/22 03:54:20;;;;;;;;;;;25.60;48.60;;;;;;8368354;28;20377;-47
2021/08/22 03:58:21;;;;;;;;;;;25.60;48.60;;;;;;8367862;28;20266;-49
2021/08/22 04:02:22;;;;;;;;;;;25.60;48.60;;;;;;8366925;28;19928;-47
2021/08/22 04:06:24;;;;;;;;;;;25.60;48.60;;;;;;8367572;28;19913;-47
2021/08/22 04:10:26;;;;;;;;;;;25.60;48.60;;;;;;8367642;28;19924;-47
2021/08/22 04:14:26;;;;;;;;;;;25.60;48.60;;;;;;8367100;28;19970;-47
2021/08/22 04:18:27;;;;;;;;;;;25.50;48.60;;;;;;8367195;28;19917;-47
2021/08/22 04:22:27;;;;;;;;;;;25.60;48.60;;;;;;8366835;28;19921;-49
2021/08/22 04:26:28;;;;;;;;;;;25.60;48.60;;;;;;8366256;28;20426;-47
2021/08/22 04:30:28;;;;;;;;;;;25.50;48.60;;;;;;8367142;28;19920;-48
2021/08/22 04:34:29;;;;;;;;;;;25.50;48.60;;;;;;8366388;28;19992;-47
2021/08/22 04:38:29;;;;;;;;;;;25.50;48.60;;;;;;8365908;28;20279;-47
2021/08/22 04:42:30;;;;;;;;;;;25.50;48.60;;;;;;8366248;28;19921;-47
2021/08/22 04:46:30;;;;;;;;;;;25.50;48.60;;;;;;8366805;28;19917;-46
2021/08/22 04:50:31;;;;;;;;;;;25.50;48.60;;;;;;8365639;28;19917;-48
2021/08/22 04:54:31;;;;;;;;;;;25.50;48.60;;;;;;8363912;28;20447;-47
2021/08/22 04:58:32;;;;;;;;;;;25.50;48.60;;;;;;8366023;28;20277;-47
2021/08/22 05:02:32;;;;;;;;;;;25.50;48.60;;;;;;8365052;28;19925;-47
2021/08/22 05:06:33;;;;;;;;;;;25.50;48.60;;;;;;8366590;28;20007;-47
2021/08/22 05:10:35;;;;;;;;;;;25.50;48.60;;;;;;8365494;28;20413;-47
2021/08/22 05:14:35;;;;;;;;;;;25.50;48.60;;;;;;8364881;28;19917;-47
2021/08/22 05:18:36;;;;;;;;;;;25.50;48.60;;;;;;8365081;28;19913;-47
2021/08/22 05:22:36;;;;;;;;;;;25.50;48.60;;;;;;8365078;28;20292;-47
2021/08/22 05:26:37;;;;;;;;;;;25.50;48.60;;;;;;8364514;28;20332;-47
2021/08/22 05:30:37;;;;;;;;;;;25.40;48.60;;;;;;8364597;28;19923;-47
2021/08/22 05:34:37;;;;;;;;;;;25.40;48.60;;;;;;8364569;28;19923;-47
2021/08/22 05:38:38;;;;;;;;;;;25.40;48.60;;;;;;8364814;28;19924;-47
2021/08/22 05:42:38;;;;;;;;;;;25.40;48.60;;;;;;8364238;28;19931;-48
2021/08/22 05:46:39;;;;;;;;;;;25.40;48.60;;;;;;8364265;28;19916;-48
2021/08/22 05:50:39;;;;;;;;;;;25.40;48.60;;;;;;8363608;28;19927;-46
2021/08/22 05:54:40;;;;;;;;;;;25.40;48.60;;;;;;8363926;28;19913;-47
2021/08/22 05:58:40;;;;;;;;;;;25.40;48.60;;;;;;8364440;28;20350;-46
2021/08/22 06:02:41;;;;;;;;;;;25.40;48.50;;;;;;8363181;28;20386;-47
2021/08/22 06:06:41;;;;;;;;;;;25.40;48.60;;;;;;8362704;28;20274;-47
2021/08/22 06:10:42;;;;;;;;;;;25.40;48.50;;;;;;8363374;28;20374;-46
2021/08/22 06:14:42;;;;;;;;;;;25.40;48.60;;;;;;8363538;28;19983;-47
2021/08/22 06:18:43;;;;;;;;;;;25.40;48.60;;;;;;8363572;28;19917;-47
2021/08/22 06:22:43;;;;;;;;;;;25.40;48.50;;;;;;8363151;28;19971;-47
2021/08/22 06:26:43;;;;;;;;;;;25.40;48.50;;;;;;8362491;28;20267;-52
2021/08/22 06:30:44;;;;;;;;;;;25.40;48.50;;;;;;8363809;28;19917;-48
2021/08/22 06:34:44;;;;;;;;;;;25.40;48.50;;;;;;8362997;28;19923;-46
2021/08/22 06:38:45;;;;;;;;;;;25.40;48.60;;;;;;8362481;28;19917;-46
2021/08/22 06:42:45;;;;;;;;;;;25.40;48.50;;;;;;8362988;28;19946;-48
2021/08/22 06:46:46;;;;;;;;;;;25.40;48.50;;;;;;8362738;28;19923;-47
2021/08/22 06:50:48;;;;;;;;;;;25.40;48.50;;;;;;8362891;28;19913;-48
2021/08/22 06:54:48;;;;;;;;;;;25.40;48.50;;;;;;8362527;28;19923;-46
2021/08/22 06:58:48;;;;;;;;;;;25.40;48.50;;;;;;8362721;28;19917;-46
2021/08/22 07:02:49;;;;;;;;;;;25.40;48.50;;;;;;8361972;28;20040;-47
2021/08/22 07:06:49;;;;;;;;;;;25.40;48.50;;;;;;8363104;28;19948;-47
2021/08/22 07:10:50;;;;;;;;;;;25.40;48.50;;;;;;8362500;28;19944;-47
2021/08/22 07:14:50;;;;;;;;;;;25.40;48.50;;;;;;8361927;28;19920;-46
2021/08/22 07:18:51;;;;;;;;;;;25.40;48.50;;;;;;8364502;28;19928;-47
2021/08/22 07:22:51;;;;;;;;;;;25.40;48.50;;;;;;8368888;28;19928;-48
2021/08/22 07:26:52;;;;;;;;;;;25.40;48.50;;;;;;8368563;28;19913;-47
2021/08/22 07:30:52;;;;;;;;;;;25.40;48.50;;;;;;8368810;28;19917;-47
2021/08/22 07:34:52;;;;;;;;;;;25.40;48.50;;;;;;8368268;28;19923;-46
2021/08/22 07:38:53;;;;;;;;;;;25.40;48.60;;;;;;8367825;28;19928;-46
2021/08/22 07:42:53;;;;;;;;;;;25.40;48.60;;;;;;8368643;28;20409;-46
2021/08/22 07:46:54;;;;;;;;;;;25.40;48.60;;;;;;8367936;28;19916;-46
2021/08/22 07:50:54;;;;;;;;;;;25.40;48.60;;;;;;8367650;28;20420;-46
2021/08/22 07:54:55;;;;;;;;;;;25.40;48.60;;;;;;8367725;28;19924;-46
2021/08/22 07:58:56;;;;;;;;;;;25.40;48.60;;;;;;8368263;28;19913;-47
2021/08/22 08:02:57;;;;;;;;;;;25.50;48.70;;;;;;8366922;28;19931;-46
2021/08/22 08:06:57;;;;;;;;;;;25.40;48.60;;;;;;8367288;28;19917;-47
2021/08/22 08:10:57;;;;;;;;;;;25.50;48.70;;;;;;8367104;28;20381;-48
2021/08/22 08:14:58;;;;;;;;;;;25.40;48.70;;;;;;8366701;28;19924;-46
2021/08/22 08:18:58;;;;;;;;;;;25.50;48.70;;;;;;8367720;28;19916;-48
2021/08/22 08:22:59;;;;;;;;;;;25.40;48.60;;;;;;8366378;28;19925;-47
2021/08/22 08:26:59;;;;;;;;;;;25.50;48.70;;;;;;8367013;28;19925;-48
2021/08/22 08:31:00;;;;;;;;;;;25.40;48.70;;;;;;8365425;28;19927;-47
2021/08/22 08:35:00;;;;;;;;;;;25.40;48.70;;;;;;8366672;28;19917;-46
2021/08/22 08:39:01;;;;;;;;;;;25.40;48.70;;;;;;8366314;28;19917;-46
2021/08/22 08:43:02;;;;;;;;;;;25.40;48.70;;;;;;8366197;28;20010;-46
2021/08/22 08:47:04;;;;;;;;;;;25.40;48.70;;;;;;8363784;28;19960;-46
2021/08/22 08:51:07;;;;;;;;;;;25.40;49.20;;;;;;8342884;28;19913;-48
2021/08/22 08:55:21;;;;;;;;;;;25.40;48.70;;;;;;8366088;28;19971;-46
2021/08/22 08:59:22;;;;;;;;;;;25.40;48.70;;;;;;8365213;28;19917;-47
2021/08/22 09:03:24;;;;;;;;;;;25.40;48.70;;;;;;8365837;28;20297;-47
2021/08/22 09:07:27;;;;;;;;;;;25.40;48.70;;;;;;8365568;28;19931;-46
2021/08/22 09:11:30;;;;;;;;;;;25.40;48.70;;;;;;8365604;28;19913;-46
2021/08/22 09:15:46;;;;;;;;;;;25.40;48.70;;;;;;8365132;28;19920;-46
2021/08/22 09:19:56;;;;;;;;;;;25.40;48.70;;;;;;8365030;28;19924;-47
2021/08/22 09:24:08;;;;;;;;;;;25.50;48.70;;;;;;8364479;28;19947;-49
2021/08/22 09:28:27;;;;;;;;;;;25.50;48.80;;;;;;8364697;28;19917;-47
2021/08/22 09:32:46;;;;;;;;;;;25.40;48.70;;;;;;8364989;28;19995;-48
2021/08/22 09:37:06;;;;;;;;;;;25.40;48.70;;;;;;8364562;28;20402;-46
2021/08/22 09:41:24;;;;;;;;;;;25.50;48.70;;;;;;8363607;28;19978;-51
2021/08/22 09:45:51;;;;;;;;;;;25.50;48.70;;;;;;8364089;28;19921;-48
2021/08/22 09:49:58;;;;;;;;;;;25.40;48.60;;;;;;8363927;28;19943;-46
2021/08/22 09:54:02;;;;;;;;;;;25.50;48.70;;;;;;8363641;28;19975;-47
2021/08/22 09:58:22;;;;;;;;;;;25.50;48.60;;;;;;8364773;28;19999;-47
2021/08/22 10:02:34;;;;;;;;;;;25.50;48.60;;;;;;8363182;28;20289;-49
2021/08/22 10:06:38;;;;;;;;;;;25.50;48.60;;;;;;8363616;28;19925;-47
2021/08/22 10:10:49;;;;;;;;;;;25.50;48.60;;;;;;8363644;28;20007;-47
2021/08/22 10:14:50;;;;;;;;;;;25.50;49.10;;;;;;8362896;28;19931;-47
2021/08/22 10:18:50;;;;;;;;;;;25.50;48.60;;;;;;8364106;28;19917;-49
2021/08/22 10:22:55;;;;;;;;;;;25.50;48.60;;;;;;8363236;28;19928;-47
2021/08/22 10:26:58;;;;;;;;;;;25.50;48.60;;;;;;8339317;28;20348;-47
2021/08/22 10:30:58;;;;;;;;;;;25.50;48.70;;;;;;8364405;28;19994;-48
2021/08/22 10:35:11;;;;;;;;;;;25.50;48.70;;;;;;8364811;28;19935;-50
2021/08/22 10:39:25;;;;;;;;;;;25.50;48.70;;;;;;8341451;28;19920;-51
2021/08/22 10:43:26;;;;;;;;;;;25.50;48.70;;;;;;8378165;28;19924;-48
2021/08/22 10:47:35;;;;;;;;;;;25.50;48.70;;;;;;8362297;28;20389;-52
2021/08/22 10:51:35;;;;;;;;;;;25.50;48.70;;;;;;8362570;28;19967;-50
2021/08/22 10:55:36;;;;;;;;;;;25.50;48.70;;;;;;8368731;28;19913;-48
2021/08/22 10:59:56;;;;;;;;;;;25.50;48.70;;;;;;8369211;28;19929;-48
2021/08/22 11:04:00;;;;;;;;;;;25.50;48.70;;;;;;8366835;28;20446;-48
2021/08/22 11:08:16;;;;;;;;;;;25.50;48.70;;;;;;8368921;28;19928;-48
2021/08/22 11:12:27;;;;;;;;;;;25.60;48.70;;;;;;8371631;28;19916;-48
2021/08/22 11:16:38;;;;;;;;;;;25.60;48.60;;;;;;8369647;28;19913;-48
2021/08/22 11:20:40;;;;;;;;;;;25.60;48.70;;;;;;8368200;28;19975;-48
2021/08/22 11:24:50;;;;;;;;;;;25.60;48.70;;;;;;8368664;28;19971;-50
2021/08/22 11:28:54;;;;;;;;;;;25.60;48.60;;;;;;8368786;28;19925;-48
2021/08/22 11:32:55;;;;;;;;;;;25.60;48.60;;;;;;8367875;28;19960;-49
2021/08/22 11:36:55;;;;;;;;;;;25.60;48.60;;;;;;8369165;28;19913;-47
2021/08/22 11:41:00;;;;;;;;;;;25.70;48.60;;;;;;8368010;28;20377;-48
2021/08/22 11:45:07;;;;;;;;;;;25.60;48.60;;;;;;8343372;28;20297;-48
2021/08/22 11:49:08;;;;;;;;;;;25.70;48.60;;;;;;8368127;28;19917;-48
2021/08/22 11:53:09;;;;;;;;;;;25.70;48.50;;;;;;8367923;28;20332;-50
2021/08/22 11:57:19;;;;;;;;;;;25.70;49.00;;;;;;8367560;28;19917;-47
2021/08/22 12:01:25;;;;;;;;;;;25.70;48.50;;;;;;8367185;28;19964;-47
2021/08/22 12:05:26;;;;;;;;;;;25.60;48.40;;;;;;8366903;28;19974;-51
2021/08/22 12:09:27;;;;;;;;;;;25.70;48.40;;;;;;8367586;28;19944;-49
2021/08/22 12:13:27;;;;;;;;;;;25.70;48.40;;;;;;8368002;28;20346;-46
2021/08/22 12:17:28;;;;;;;;;;;25.70;48.40;;;;;;8366645;28;19916;-48
2021/08/22 12:21:33;;;;;;;;;;;25.70;48.40;;;;;;8366376;28;21308;-47
2021/08/22 12:25:36;;;;;;;;;;;25.70;48.40;;;;;;8366337;28;19990;-47
2021/08/22 12:29:38;;;;;;;;;;;25.70;48.40;;;;;;8367093;28;20297;-49
2021/08/22 12:33:52;;;;;;;;;;;25.70;48.30;;;;;;8366990;28;20400;-48
2021/08/22 12:38:10;;;;;;;;;;;25.70;48.30;;;;;;8366428;28;19952;-47
2021/08/22 12:42:16;;;;;;;;;;;25.70;48.30;;;;;;8365876;28;19925;-47
2021/08/22 12:46:17;;;;;;;;;;;25.70;48.30;;;;;;8365989;28;19919;-47
2021/08/22 12:50:17;;;;;;;;;;;25.70;48.30;;;;;;8366360;28;20449;-47
2021/08/22 12:54:19;;;;;;;;;;;25.70;48.30;;;;;;8365784;28;19920;-47
2021/08/22 12:58:19;;;;;;;;;;;25.70;48.30;;;;;;8365849;28;20015;-46
2021/08/22 13:02:19;;;;;;;;;;;25.70;48.30;;;;;;8365121;28;19987;-48
2021/08/22 13:06:20;;;;;;;;;;;25.70;48.30;;;;;;8365596;28;20000;-47
2021/08/22 13:10:20;;;;;;;;;;;25.70;48.20;;;;;;8366370;28;19931;-46
2021/08/22 13:14:21;;;;;;;;;;;25.70;48.20;;;;;;8364905;28;19924;-47
2021/08/22 13:18:21;;;;;;;;;;;25.70;48.20;;;;;;8364519;28;19924;-47
2021/08/22 13:22:22;;;;;;;;;;;25.80;48.20;;;;;;8364766;28;20011;-48
2021/08/22 13:26:24;;;;;;;;;;;25.70;48.20;;;;;;8364607;28;20435;-48
2021/08/22 13:30:24;;;;;;;;;;;25.80;48.20;;;;;;8364980;28;19923;-48
2021/08/22 13:34:25;;;;;;;;;;;25.70;48.10;;;;;;8364684;28;20384;-48
2021/08/22 13:38:25;;;;;;;;;;;25.70;48.10;;;;;;8364160;28;19917;-48
2021/08/22 13:42:26;;;;;;;;;;;25.80;48.20;;;;;;8364884;28;19925;-48
2021/08/22 13:46:26;;;;;;;;;;;25.80;48.10;;;;;;8364398;28;19917;-47
2021/08/22 13:50:27;;;;;;;;;;;25.80;48.10;;;;;;8363574;28;19917;-47
2021/08/22 13:54:27;;;;;;;;;;;25.80;48.10;;;;;;8364124;28;19990;-48
2021/08/22 13:58:27;;;;;;;;;;;25.80;48.10;;;;;;8363925;28;19924;-49
2021/08/22 14:02:28;;;;;;;;;;;25.80;48.10;;;;;;8364024;28;19924;-47
2021/08/22 14:06:28;;;;;;;;;;;25.80;48.10;;;;;;8363899;28;19943;-48
2021/08/22 14:10:29;;;;;;;;;;;25.80;48.00;;;;;;8363402;28;19964;-49
2021/08/22 14:14:29;;;;;;;;;;;25.80;48.00;;;;;;8362980;28;20293;-48
2021/08/22 14:18:30;;;;;;;;;;;25.80;48.00;;;;;;8364184;28;19916;-46
2021/08/22 14:22:31;;;;;;;;;;;25.80;48.00;;;;;;8363238;28;19935;-47
2021/08/22 14:26:31;;;;;;;;;;;25.80;48.00;;;;;;8362555;28;20500;-46
2021/08/22 14:30:32;;;;;;;;;;;25.80;48.00;;;;;;8362126;28;19932;-48
2021/08/22 14:34:33;;;;;;;;;;;25.80;48.00;;;;;;8363154;28;19935;-47
2021/08/22 14:38:35;;;;;;;;;;;25.80;48.00;;;;;;8363079;28;19913;-48
2021/08/22 14:42:35;;;;;;;;;;;25.80;48.60;;;;;;8362696;28;19929;-46
2021/08/22 14:46:36;;;;;;;;;;;25.80;48.00;;;;;;8362893;28;19917;-47
2021/08/22 14:50:36;;;;;;;;;;;25.80;48.00;;;;;;8362209;28;19995;-46
2021/08/22 14:54:37;;;;;;;;;;;25.70;48.00;;;;;;8363592;28;19940;-46
2021/08/22 14:58:37;;;;;;;;;;;25.80;48.00;;;;;;8362640;28;20377;-48
2021/08/22 15:02:38;;;;;;;;;;;25.70;48.00;;;;;;8360310;28;19975;-47
2021/08/22 15:06:38;;;;;;;;;;;25.70;48.00;;;;;;8362288;28;19917;-47
2021/08/22 15:10:39;;;;;;;;;;;25.70;48.00;;;;;;8362859;28;19921;-47
2021/08/22 15:14:44;;;;;;;;;;;25.70;48.00;;;;;;8361842;28;20365;-46
2021/08/22 15:18:45;;;;;;;;;;;25.70;48.00;;;;;;8362416;28;19920;-47
2021/08/22 15:22:45;;;;;;;;;;;25.70;48.00;;;;;;8361942;28;19979;-46
2021/08/22 15:26:46;;;;;;;;;;;25.70;48.00;;;;;;8361743;28;19917;-48
2021/08/22 15:30:46;;;;;;;;;;;25.70;48.00;;;;;;8362765;28;19975;-47
2021/08/22 15:34:47;;;;;;;;;;;25.70;48.00;;;;;;8362110;28;20436;-48
2021/08/22 15:38:47;;;;;;;;;;;25.70;48.00;;;;;;8361992;28;20397;-46
2021/08/22 15:42:47;;;;;;;;;;;25.70;48.00;;;;;;8368036;28;20271;-46
2021/08/22 15:46:48;;;;;;;;;;;25.70;48.00;;;;;;8368897;28;20007;-47
2021/08/22 15:50:48;;;;;;;;;;;25.70;48.00;;;;;;8367456;28;19970;-49
2021/08/22 15:54:49;;;;;;;;;;;25.70;47.90;;;;;;8367728;28;19921;-47
2021/08/22 15:58:49;;;;;;;;;;;25.70;47.90;;;;;;8367703;28;19912;-47
2021/08/22 16:02:50;;;;;;;;;;;25.70;47.80;;;;;;8367751;28;19924;-48
2021/08/22 16:06:52;;;;;;;;;;;25.70;47.80;;;;;;8367302;28;19967;-48
2021/08/22 16:10:53;;;;;;;;;;;25.70;47.70;;;;;;8367257;28;20002;-48
2021/08/22 16:14:53;;;;;;;;;;;25.70;47.70;;;;;;8366596;28;19917;-47
2021/08/22 16:18:54;;;;;;;;;;;25.70;47.70;;;;;;8367244;28;20297;-47
2021/08/22 16:22:55;;;;;;;;;;;25.70;47.70;;;;;;8367706;28;19975;-47
2021/08/22 16:26:55;;;;;;;;;;;25.70;47.70;;;;;;8366266;28;19917;-46
2021/08/22 16:30:56;;;;;;;;;;;25.70;47.60;;;;;;8366594;28;19979;-47
2021/08/22 16:34:56;;;;;;;;;;;25.70;47.60;;;;;;8366064;28;19978;-48
2021/08/22 16:38:57;;;;;;;;;;;25.70;47.60;;;;;;8366885;28;19912;-47
2021/08/22 16:42:57;;;;;;;;;;;25.70;47.60;;;;;;8366649;28;19928;-47
2021/08/22 16:46:58;;;;;;;;;;;25.70;47.60;;;;;;8366319;28;19916;-47
2021/08/22 16:50:58;;;;;;;;;;;25.60;47.60;;;;;;8364563;28;19971;-47
2021/08/22 16:55:00;;;;;;;;;;;25.70;47.80;;;;;;8366174;28;19913;-47
2021/08/22 16:59:00;;;;;;;;;;;25.70;47.60;;;;;;8366222;28;20344;-46
2021/08/22 17:03:01;;;;;;;;;;;25.70;48.10;;;;;;8365678;28;19959;-47
2021/08/22 17:07:02;;;;;;;;;;;25.60;47.60;;;;;;8365565;28;19940;-46
2021/08/22 17:11:02;;;;;;;;;;;25.60;47.60;;;;;;8365012;28;19916;-46
2021/08/22 17:15:04;;;;;;;;;;;25.60;47.60;;;;;;8366383;28;20385;-47
2021/08/22 17:19:05;;;;;;;;;;;25.60;47.60;;;;;;8365166;28;19999;-48
2021/08/22 17:23:09;;;;;;;;;;;25.60;47.60;;;;;;8364444;28;19925;-47
2021/08/22 17:27:10;;;;;;;;;;;25.60;47.60;;;;;;8380279;28;20378;-46
2021/08/22 17:31:10;;;;;;;;;;;25.60;47.60;;;;;;8365649;28;19916;-46
2021/08/22 17:35:11;;;;;;;;;;;25.60;47.60;;;;;;8364362;28;19975;-47
2021/08/22 17:39:11;;;;;;;;;;;25.60;47.60;;;;;;8364973;28;19923;-47
2021/08/22 17:43:12;;;;;;;;;;;25.60;47.70;;;;;;8364222;28;19925;-46
2021/08/22 17:47:12;;;;;;;;;;;25.60;47.70;;;;;;8363746;28;20330;-46
2021/08/22 17:51:13;;;;;;;;;;;25.60;47.70;;;;;;8364848;28;19993;-46
2021/08/22 17:55:13;;;;;;;;;;;25.60;47.70;;;;;;8364312;28;19982;-46
2021/08/22 17:59:14;;;;;;;;;;;25.60;47.70;;;;;;8378767;28;20012;-47
2021/08/22 18:03:16;;;;;;;;;;;25.60;47.80;;;;;;8363829;28;19925;-47
2021/08/22 18:07:16;;;;;;;;;;;25.50;47.70;;;;;;8364247;28;20008;-47
2021/08/22 18:11:17;;;;;;;;;;;25.50;47.70;;;;;;8360929;28;19917;-47
2021/08/22 18:15:18;;;;;;;;;;;25.50;47.90;;;;;;8362157;28;19952;-48
2021/08/22 18:19:18;;;;;;;;;;;25.50;47.80;;;;;;8361989;28;19920;-47
2021/08/22 18:23:19;;;;;;;;;;;25.50;47.80;;;;;;8362087;28;19978;-49
2021/08/22 18:27:19;;;;;;;;;;;25.50;47.80;;;;;;8363563;28;19966;-48
2021/08/22 18:31:20;;;;;;;;;;;25.50;47.90;;;;;;8363412;28;19924;-47
2021/08/22 18:35:20;;;;;;;;;;;25.50;47.90;;;;;;8362543;28;19924;-48
2021/08/22 18:39:21;;;;;;;;;;;25.50;47.90;;;;;;8361694;28;20008;-48
2021/08/22 18:43:22;;;;;;;;;;;25.50;47.90;;;;;;8363706;28;19921;-53
2021/08/22 18:47:23;;;;;;;;;;;25.40;47.90;;;;;;8362423;28;20273;-47
2021/08/22 18:51:23;;;;;;;;;;;25.40;47.90;;;;;;8362997;28;20004;-47
2021/08/22 18:55:24;;;;;;;;;;;25.40;47.90;;;;;;8362964;28;20051;-46
2021/08/22 18:59:25;;;;;;;;;;;25.40;47.90;;;;;;8362919;28;20339;-46
2021/08/22 19:03:27;;;;;;;;;;;25.40;47.90;;;;;;8362778;28;19924;-48
2021/08/22 19:07:28;;;;;;;;;;;25.40;47.90;;;;;;8362475;28;19927;-50
2021/08/22 19:11:30;;;;;;;;;;;25.40;47.90;;;;;;8362016;28;19924;-47
2021/08/22 19:15:31;;;;;;;;;;;25.40;47.90;;;;;;8365977;28;19912;-46
2021/08/22 19:19:32;;;;;;;;;;;25.40;47.90;;;;;;8369647;28;19958;-51
2021/08/22 19:23:33;;;;;;;;;;;25.40;47.90;;;;;;8368346;28;20294;-50
2021/08/22 19:27:33;;;;;;;;;;;25.40;48.00;;;;;;8368502;28;20417;-47
2021/08/22 19:31:34;;;;;;;;;;;25.40;48.00;;;;;;8368623;28;19917;-47
2021/08/22 19:35:35;;;;;;;;;;;25.40;48.00;;;;;;8368750;28;19920;-49
2021/08/22 19:39:35;;;;;;;;;;;25.40;48.00;;;;;;8368286;28;19998;-47
2021/08/22 19:43:36;;;;;;;;;;;25.40;48.00;;;;;;8368420;28;20024;-46
2021/08/22 19:47:36;;;;;;;;;;;25.40;48.00;;;;;;8367725;28;19961;-48
2021/08/22 19:51:37;;;;;;;;;;;25.40;48.00;;;;;;8368849;28;19913;-51
2021/08/22 19:55:37;;;;;;;;;;;25.30;48.00;;;;;;8367823;28;19916;-47
2021/08/22 19:59:38;;;;;;;;;;;25.30;48.00;;;;;;8367342;28;20023;-51
2021/08/22 20:03:38;;;;;;;;;;;25.30;48.00;;;;;;8367479;28;19924;-47
2021/08/22 20:07:40;;;;;;;;;;;25.30;48.00;;;;;;8367738;28;20266;-48
2021/08/22 20:11:40;;;;;;;;;;;25.30;48.00;;;;;;8367493;28;19920;-47
2021/08/22 20:15:41;;;;;;;;;;;25.30;48.00;;;;;;8367070;28;19943;-47
2021/08/22 20:19:42;;;;;;;;;;;25.30;48.00;;;;;;8367587;28;20023;-47
2021/08/22 20:23:43;;;;;;;;;;;25.30;48.00;;;;;;8366652;28;19925;-48
2021/08/22 20:27:44;;;;;;;;;;;25.30;48.00;;;;;;8366471;28;20016;-47
2021/08/22 20:31:44;;;;;;;;;;;25.30;48.00;;;;;;8367029;28;20357;-49
2021/08/22 20:35:46;;;;;;;;;;;25.30;48.00;;;;;;8366113;28;19916;-48
2021/08/22 20:39:46;;;;;;;;;;;25.30;48.00;;;;;;8366389;28;19943;-47
2021/08/22 20:43:47;;;;;;;;;;;25.30;48.00;;;;;;8366525;28;20357;-47
2021/08/22 20:47:47;;;;;;;;;;;25.20;47.90;;;;;;8366120;28;19916;-47
2021/08/22 20:51:48;;;;;;;;;;;25.20;47.90;;;;;;8366256;28;19923;-48
2021/08/22 20:55:48;;;;;;;;;;;25.20;48.00;;;;;;8366060;28;19917;-47
2021/08/22 20:59:48;;;;;;;;;;;25.20;47.90;;;;;;8365477;28;20058;-47
2021/08/22 21:03:49;;;;;;;;;;;25.20;47.90;;;;;;8366242;28;19932;-48
2021/08/22 21:07:49;;;;;;;;;;;25.20;48.00;;;;;;8365793;28;19920;-50
2021/08/22 21:11:50;;;;;;;;;;;25.20;48.00;;;;;;8364981;28;19917;-48
2021/08/22 21:15:50;;;;;;;;;;;25.20;48.00;;;;;;8365665;28;19917;-47
2021/08/22 21:19:51;;;;;;;;;;;25.20;48.00;;;;;;8365761;28;19923;-47
2021/08/22 21:23:52;;;;;;;;;;;25.20;48.00;;;;;;8364603;28;19951;-49
2021/08/22 21:27:53;;;;;;;;;;;25.20;48.00;;;;;;8364769;28;20401;-48
2021/08/22 21:31:53;;;;;;;;;;;25.20;48.00;;;;;;8364601;28;19963;-49
2021/08/22 21:35:55;;;;;;;;;;;25.20;48.00;;;;;;8364111;28;19959;-48
2021/08/22 21:39:56;;;;;;;;;;;25.20;48.00;;;;;;8365142;28;20358;-48
2021/08/22 21:43:57;;;;;;;;;;;25.10;47.90;;;;;;8364449;28;20059;-48
2021/08/22 21:47:57;;;;;;;;;;;25.20;48.00;;;;;;8363817;28;19917;-49
2021/08/22 21:51:58;;;;;;;;;;;25.10;47.90;;;;;;8364394;28;19917;-47
2021/08/22 21:56:01;;;;;;;;;;;25.20;48.00;;;;;;8364753;28;20270;-48
2021/08/22 22:04:40;;;;;;;;;;;25.10;48.00;;;;;;8325590;28;19936;-47
2021/08/22 22:08:41;;;;;;;;;;;25.10;48.00;;;;;;8361116;28;20381;-49
2021/08/22 22:12:41;;;;;;;;;;;25.10;47.90;;;;;;8363483;28;19967;-48
2021/08/22 22:16:41;;;;;;;;;;;25.10;48.00;;;;;;8364433;28;19924;-51
2021/08/22 22:20:42;;;;;;;;;;;25.10;47.90;;;;;;8346793;28;20286;-50
2021/08/22 22:24:42;;;;;;;;;;;25.00;47.90;;;;;;8363602;28;20425;-50
2021/08/22 22:28:43;;;;;;;;;;;25.00;47.90;;;;;;8363157;28;19951;-47
2021/08/22 22:32:44;;;;;;;;;;;25.00;47.90;;;;;;8363321;28;20295;-49
2021/08/22 22:36:44;;;;;;;;;;;25.00;47.90;;;;;;8362764;28;19924;-47
2021/08/22 22:40:44;;;;;;;;;;;25.00;47.90;;;;;;8362891;28;19920;-48
2021/08/22 22:44:45;;;;;;;;;;;25.00;47.90;;;;;;8362456;28;20393;-50
2021/08/22 22:48:45;;;;;;;;;;;25.00;47.90;;;;;;8362087;28;19920;-47
2021/08/22 22:52:46;;;;;;;;;;;25.00;47.90;;;;;;8363330;28;19963;-48
2021/08/22 22:56:46;;;;;;;;;;;25.00;47.90;;;;;;8362231;28;19916;-47
2021/08/22 23:00:47;;;;;;;;;;;25.00;47.90;;;;;;8362775;28;19921;-48
2021/08/22 23:04:47;;;;;;;;;;;25.00;47.90;;;;;;8361998;28;19916;-47
2021/08/22 23:08:48;;;;;;;;;;;25.00;47.90;;;;;;8363114;28;19921;-48
2021/08/22 23:12:48;;;;;;;;;;;25.00;47.90;;;;;;8362302;28;19940;-47
2021/08/22 23:16:48;;;;;;;;;;;25.00;47.90;;;;;;8362378;28;20001;-47
2021/08/22 23:20:50;;;;;;;;;;;25.00;47.90;;;;;;8361765;28;19921;-47
2021/08/22 23:24:50;;;;;;;;;;;24.90;47.90;;;;;;8362855;28;19935;-48
2021/08/22 23:28:51;;;;;;;;;;;24.90;47.80;;;;;;8361917;28;19921;-48